Time,TemperatureF,DewpointF,PressureIn,WindDirection,WindDirectionDegrees,WindSpeedMPH,WindSpeedGustMPH,Humidity,HourlyPrecipIn,Conditions,Clouds,dailyrainin,SolarRadiationWatts/m^2,SoftwareType,DateUTC
2013-07-22 00:01:00,71.6,68.2,29.84,South,188,0.0,0.0,89,0.00,CLR,,0.00,0.0,WeatherDisplay:10.37,2013-07-22 05:01:00,
2013-07-22 00:06:00,71.5,68.1,29.84,South,188,0.0,0.0,89,0.00,CLR,,0.00,0.0,WeatherDisplay:10.37,2013-07-22 05:06:00,
2013-07-22 00:11:00,71.4,68.0,29.84,South,188,0.0,0.0,89,0.00,CLR,,0.00,0.0,WeatherDisplay:10.37,2013-07-22 05:11:00,
2013-07-22 00:16:00,71.5,68.4,29.84,South,188,0.0,0.0,90,0.00,CLR,,0.00,0.0,WeatherDisplay:10.37,2013-07-22 05:16:00,
2013-07-22 00:21:00,71.4,68.3,29.84,South,188,0.0,0.0,90,0.00,CLR,,0.00,0.0,WeatherDisplay:10.37,2013-07-22 05:21:00,
2013-07-22 00:26:00,71.4,68.3,29.84,South,188,0.0,0.0,90,0.00,CLR,,0.00,0.0,WeatherDisplay:10.37,2013-07-22 05:26:00,
2013-07-22 00:31:00,71.4,68.3,29.84,South,188,0.0,0.0,90,0.00,CLR,,0.00,0.0,WeatherDisplay:10.37,2013-07-22 05:31:00,
2013-07-22 00:36:00,71.4,68.6,29.83,South,188,0.0,0.0,91,0.00,CLR,,0.00,0.0,WeatherDisplay:10.37,2013-07-22 05:36:00,
2013-07-22 00:41:00,71.4,68.6,29.84,South,188,0.0,0.0,91,0.00,CLR,,0.00,0.0,WeatherDisplay:10.37,2013-07-22 05:41:00,
2013-07-22 00:46:00,71.3,68.5,29.83,South,188,0.0,0.0,91,0.00,CLR,,0.00,0.0,WeatherDisplay:10.37,2013-07-22 05:46:00,
2013-07-22 00:51:00,71.5,68.7,29.83,South,187,0.0,0.0,91,0.00,CLR,,0.00,0.0,WeatherDisplay:10.37,2013-07-22 05:51:00,
2013-07-22 00:56:00,71.5,68.7,29.83,South,188,0.0,0.0,91,0.00,CLR,,0.00,0.0,WeatherDisplay:10.37,2013-07-22 05:56:00,
2013-07-22 01:01:00,71.6,68.8,29.83,South,188,0.0,0.0,91,0.00,CLR,,0.00,0.0,WeatherDisplay:10.37,2013-07-22 06:01:00,
2013-07-22 01:06:00,71.7,68.9,29.83,South,188,0.0,0.0,91,0.00,CLR,,0.00,0.0,WeatherDisplay:10.37,2013-07-22 06:06:00,
2013-07-22 01:11:00,71.7,68.9,29.83,South,188,0.0,0.0,91,0.00,CLR,,0.00,0.0,WeatherDisplay:10.37,2013-07-22 06:11:00,
2013-07-22 01:16:00,71.6,68.5,29.83,South,188,0.0,0.0,90,0.00,CLR,,0.00,0.0,WeatherDisplay:10.37,2013-07-22 06:16:00,
2013-07-22 01:21:00,71.5,68.4,29.83,SSE,150,0.0,0.0,90,0.00,CLR,,0.00,0.0,WeatherDisplay:10.37,2013-07-22 06:21:00,
2013-07-22 01:26:00,71.3,68.2,29.82,SSE,150,0.0,0.0,90,0.00,CLR,,0.00,0.0,WeatherDisplay:10.37,2013-07-22 06:26:00,
2013-07-22 01:31:00,71.3,68.2,29.82,SSE,150,0.0,0.0,90,0.00,CLR,,0.00,0.0,WeatherDisplay:10.37,2013-07-22 06:31:00,
2013-07-22 01:36:00,71.3,68.2,29.82,SSE,150,0.0,0.0,90,0.00,CLR,,0.00,0.0,WeatherDisplay:10.37,2013-07-22 06:36:00,
2013-07-22 01:41:00,71.3,68.2,29.82,SSE,150,0.0,0.0,90,0.00,CLR,,0.00,0.0,WeatherDisplay:10.37,2013-07-22 06:41:00,
2013-07-22 01:46:00,71.2,68.1,29.82,SSE,150,0.0,0.0,90,0.00,CLR,,0.00,0.0,WeatherDisplay:10.37,2013-07-22 06:46:00,
2013-07-22 01:51:00,71.1,68.0,29.81,SSE,150,0.0,0.0,90,0.00,CLR,,0.00,0.0,WeatherDisplay:10.37,2013-07-22 06:51:00,
2013-07-22 01:56:00,71.1,68.0,29.81,SSE,150,0.0,0.0,90,0.00,CLR,,0.00,0.0,WeatherDisplay:10.37,2013-07-22 06:56:00,
2013-07-22 02:01:00,71.0,67.9,29.81,SSE,150,0.0,0.0,90,0.00,CLR,,0.00,0.0,WeatherDisplay:10.37,2013-07-22 07:01:00,
2013-07-22 02:06:00,71.0,67.9,29.80,SSE,150,0.0,0.0,90,0.00,CLR,,0.00,0.0,WeatherDisplay:10.37,2013-07-22 07:06:00,
2013-07-22 02:12:00,71.0,68.2,29.80,SSE,150,0.0,0.0,91,0.00,CLR,,0.00,0.0,WeatherDisplay:10.37,2013-07-22 07:12:00,
2013-07-22 02:17:00,70.9,68.1,29.80,SSE,150,0.0,0.0,91,0.00,CLR,,0.00,0.0,WeatherDisplay:10.37,2013-07-22 07:17:00,
2013-07-22 02:22:00,70.8,68.0,29.80,SSE,150,0.0,0.0,91,0.00,CLR,,0.00,0.0,WeatherDisplay:10.37,2013-07-22 07:22:00,
2013-07-22 02:27:00,70.7,67.9,29.80,SSE,150,0.0,0.0,91,0.00,CLR,,0.00,0.0,WeatherDisplay:10.37,2013-07-22 07:27:00,
2013-07-22 02:32:00,70.6,67.8,29.79,SSE,150,0.0,0.0,91,0.00,CLR,,0.00,0.0,WeatherDisplay:10.37,2013-07-22 07:32:00,
2013-07-22 02:37:00,70.4,67.6,29.79,SSE,150,0.0,0.0,91,0.00,CLR,,0.00,0.0,WeatherDisplay:10.37,2013-07-22 07:37:00,
2013-07-22 02:42:00,70.4,67.6,29.79,SSE,150,0.0,0.0,91,0.00,CLR,,0.00,0.0,WeatherDisplay:10.37,2013-07-22 07:42:00,
2013-07-22 02:47:00,70.3,67.5,29.79,SSE,150,0.0,0.0,91,0.00,CLR,,0.00,0.0,WeatherDisplay:10.37,2013-07-22 07:47:00,
2013-07-22 02:52:00,70.1,67.3,29.79,SSE,150,0.0,0.0,91,0.00,CLR,,0.00,0.0,WeatherDisplay:10.37,2013-07-22 07:52:00,
2013-07-22 02:57:00,70.0,67.3,29.79,SSE,150,0.0,0.0,91,0.00,CLR,,0.00,0.0,WeatherDisplay:10.37,2013-07-22 07:57:00,
2013-07-22 03:02:00,69.9,67.2,29.79,SSE,150,0.0,0.0,91,0.00,CLR,,0.00,0.0,WeatherDisplay:10.37,2013-07-22 08:02:00,
2013-07-22 03:07:00,69.7,67.0,29.79,SSE,150,0.0,0.0,91,0.00,CLR,,0.00,0.0,WeatherDisplay:10.37,2013-07-22 08:07:00,
2013-07-22 03:12:00,69.6,66.9,29.79,SSE,150,0.0,0.0,91,0.00,CLR,,0.00,0.0,WeatherDisplay:10.37,2013-07-22 08:12:00,
2013-07-22 03:17:00,69.5,66.8,29.79,SSE,150,0.0,0.0,91,0.00,CLR,,0.00,0.0,WeatherDisplay:10.37,2013-07-22 08:17:00,
2013-07-22 03:22:00,69.4,66.7,29.79,SSE,150,0.0,0.0,91,0.00,CLR,,0.00,0.0,WeatherDisplay:10.37,2013-07-22 08:22:00,
2013-07-22 03:27:00,69.2,66.5,29.79,SSE,150,0.0,0.0,91,0.00,CLR,,0.00,0.0,WeatherDisplay:10.37,2013-07-22 08:27:00,
2013-07-22 03:32:00,69.1,66.4,29.79,SSE,150,0.0,0.0,91,0.00,CLR,,0.00,0.0,WeatherDisplay:10.37,2013-07-22 08:32:00,
2013-07-22 03:37:00,69.0,66.3,29.79,SSE,150,0.0,0.0,91,0.00,CLR,,0.00,0.0,WeatherDisplay:10.37,2013-07-22 08:37:00,
2013-07-22 03:42:00,68.9,66.5,29.79,SSE,150,0.0,0.0,92,0.00,CLR,,0.00,0.0,WeatherDisplay:10.37,2013-07-22 08:42:00,
2013-07-22 03:47:00,68.8,66.4,29.79,SSE,150,0.0,0.0,92,0.00,CLR,,0.00,0.0,WeatherDisplay:10.37,2013-07-22 08:47:00,
2013-07-22 03:52:00,68.8,66.4,29.78,SSE,150,0.0,0.0,92,0.00,CLR,,0.00,0.0,WeatherDisplay:10.37,2013-07-22 08:52:00,
2013-07-22 03:57:00,68.7,66.3,29.78,SSE,150,0.0,0.0,92,0.00,CLR,,0.00,0.0,WeatherDisplay:10.37,2013-07-22 08:57:00,
2013-07-22 04:02:00,68.5,66.1,29.78,SSE,150,0.0,0.0,92,0.00,CLR,,0.00,0.0,WeatherDisplay:10.37,2013-07-22 09:02:00,
2013-07-22 04:07:00,68.4,66.0,29.78,SSE,150,0.0,0.0,92,0.00,CLR,,0.00,0.0,WeatherDisplay:10.37,2013-07-22 09:07:00,
2013-07-22 04:12:00,68.3,65.9,29.78,SSE,150,0.0,0.0,92,0.00,CLR,,0.00,0.0,WeatherDisplay:10.37,2013-07-22 09:12:00,
2013-07-22 04:17:00,68.2,66.1,29.78,SSE,150,0.0,0.0,93,0.00,CLR,,0.00,0.0,WeatherDisplay:10.37,2013-07-22 09:17:00,
2013-07-22 04:22:00,68.1,66.0,29.78,SSE,150,0.0,0.0,93,0.00,CLR,,0.00,0.0,WeatherDisplay:10.37,2013-07-22 09:22:00,
2013-07-22 04:27:00,68.0,65.9,29.78,SSE,150,0.0,0.0,93,0.00,CLR,,0.00,0.0,WeatherDisplay:10.37,2013-07-22 09:27:00,
2013-07-22 04:32:00,67.9,65.8,29.79,SSE,150,0.0,0.0,93,0.00,CLR,,0.00,0.0,WeatherDisplay:10.37,2013-07-22 09:32:00,
2013-07-22 04:37:00,67.7,65.6,29.79,SSE,150,0.0,0.0,93,0.00,CLR,,0.00,0.0,WeatherDisplay:10.37,2013-07-22 09:37:00,
2013-07-22 04:42:00,67.6,65.5,29.79,SSE,150,0.0,0.0,93,0.00,CLR,,0.00,0.0,WeatherDisplay:10.37,2013-07-22 09:42:00,
2013-07-22 04:47:00,67.5,65.4,29.79,SSE,150,0.0,0.0,93,0.00,CLR,,0.00,0.0,WeatherDisplay:10.37,2013-07-22 09:47:00,
2013-07-22 04:52:00,67.4,65.3,29.80,SSE,150,0.0,0.0,93,0.00,CLR,,0.00,0.0,WeatherDisplay:10.37,2013-07-22 09:52:00,
2013-07-22 04:57:00,67.3,65.2,29.80,SSE,150,0.0,0.0,93,0.00,CLR,,0.00,0.0,WeatherDisplay:10.37,2013-07-22 09:57:00,
2013-07-22 05:02:00,67.2,65.1,29.80,SSE,150,0.0,0.0,93,0.00,CLR,,0.00,0.0,WeatherDisplay:10.37,2013-07-22 10:02:00,
2013-07-22 05:07:00,67.1,65.0,29.80,SSE,150,0.0,0.0,93,0.00,CLR,,0.00,0.0,WeatherDisplay:10.37,2013-07-22 10:07:00,
2013-07-22 05:08:00,67.1,65.0,29.80,SSE,150,0.0,0.0,93,0.00,CLR,,0.00,0.0,WeatherDisplay:10.37,2013-07-22 10:08:00,
2013-07-22 05:13:00,67.0,64.9,29.80,SSE,150,0.0,0.0,93,0.00,CLR,,0.00,0.0,WeatherDisplay:10.37,2013-07-22 10:13:00,
2013-07-22 05:18:00,66.9,64.8,29.80,SSE,150,0.0,0.0,93,0.00,CLR,,0.00,0.0,WeatherDisplay:10.37,2013-07-22 10:18:00,
2013-07-22 05:23:00,66.9,64.8,29.80,SSE,150,0.0,0.0,93,0.00,CLR,,0.00,0.0,WeatherDisplay:10.37,2013-07-22 10:23:00,
2013-07-22 05:28:00,66.8,64.7,29.80,SSE,150,0.0,0.0,93,0.00,CLR,,0.00,0.0,WeatherDisplay:10.37,2013-07-22 10:28:00,
2013-07-22 05:33:00,66.7,64.6,29.80,SSE,150,0.0,0.0,93,0.00,CLR,,0.00,0.0,WeatherDisplay:10.37,2013-07-22 10:33:00,
2013-07-22 05:38:00,66.6,64.5,29.80,SSE,150,0.0,0.0,93,0.00,CLR,,0.00,0.0,WeatherDisplay:10.37,2013-07-22 10:38:00,
2013-07-22 05:43:00,66.5,64.4,29.80,SSE,150,0.0,0.0,93,0.00,CLR,,0.00,0.0,WeatherDisplay:10.37,2013-07-22 10:43:00,
2013-07-22 05:48:00,66.5,64.4,29.81,SSE,150,0.0,0.0,93,0.00,OVC,,0.00,0.0,WeatherDisplay:10.37,2013-07-22 10:48:00,
2013-07-22 05:53:00,66.4,64.3,29.81,SSE,150,0.0,0.0,93,0.00,BKN,,0.00,5.0,WeatherDisplay:10.37,2013-07-22 10:53:00,
2013-07-22 05:58:00,66.3,64.2,29.81,SSE,150,0.0,0.0,93,0.00,BKN,,0.00,9.0,WeatherDisplay:10.37,2013-07-22 10:58:00,
2013-07-22 06:03:00,66.3,64.2,29.81,SSE,150,0.0,0.0,93,0.00,BKN,,0.00,16.0,WeatherDisplay:10.37,2013-07-22 11:03:00,
2013-07-22 06:08:00,66.3,64.5,29.81,SSE,150,0.0,0.0,94,0.00,BKN,,0.00,28.0,WeatherDisplay:10.37,2013-07-22 11:08:00,
2013-07-22 06:13:00,66.4,64.6,29.80,SSE,150,0.0,0.0,94,0.00,BKN,,0.00,37.0,WeatherDisplay:10.37,2013-07-22 11:13:00,
2013-07-22 06:18:00,66.4,64.6,29.80,SSE,150,0.0,0.0,94,0.00,BKN,,0.00,51.0,WeatherDisplay:10.37,2013-07-22 11:18:00,
2013-07-22 06:23:00,66.5,64.7,29.81,SSE,150,0.0,0.0,94,0.00,BKN,,0.00,62.0,WeatherDisplay:10.37,2013-07-22 11:23:00,
2013-07-22 06:28:00,66.6,65.1,29.81,SSE,150,0.0,0.0,95,0.00,BKN,,0.00,67.0,WeatherDisplay:10.37,2013-07-22 11:28:00,
2013-07-22 06:33:00,66.7,65.2,29.81,SSE,150,0.0,0.0,95,0.00,BKN,,0.00,83.0,WeatherDisplay:10.37,2013-07-22 11:33:00,
2013-07-22 06:38:00,66.8,65.3,29.81,SSE,150,0.0,0.0,95,0.00,BKN,,0.00,93.0,WeatherDisplay:10.37,2013-07-22 11:38:00,
2013-07-22 06:43:00,67.1,65.6,29.80,SSE,150,0.0,0.0,95,0.00,SCT,,0.00,109.0,WeatherDisplay:10.37,2013-07-22 11:43:00,
2013-07-22 06:48:00,67.3,65.8,29.81,SSE,150,0.0,0.0,95,0.00,SCT,,0.00,125.0,WeatherDisplay:10.37,2013-07-22 11:48:00,
2013-07-22 06:53:00,67.4,65.9,29.81,SSE,150,0.0,0.0,95,0.00,SCT,,0.00,137.0,WeatherDisplay:10.37,2013-07-22 11:53:00,
2013-07-22 06:58:00,67.5,66.0,29.80,SSE,150,0.0,0.0,95,0.00,SCT,,0.00,149.0,WeatherDisplay:10.37,2013-07-22 11:58:00,
2013-07-22 07:03:00,67.6,66.1,29.80,SSE,150,0.0,0.0,95,0.00,SCT,,0.00,162.0,WeatherDisplay:10.37,2013-07-22 12:03:00,
2013-07-22 07:08:00,67.7,66.2,29.80,SSE,150,0.0,0.0,95,0.00,SCT,,0.00,181.0,WeatherDisplay:10.37,2013-07-22 12:08:00,
2013-07-22 07:13:00,67.9,66.4,29.81,SSE,150,0.0,0.0,95,0.00,SCT,,0.00,195.0,WeatherDisplay:10.37,2013-07-22 12:13:00,
2013-07-22 07:18:00,68.1,66.6,29.81,SSE,155,0.0,0.0,95,0.00,SCT,,0.00,214.0,WeatherDisplay:10.37,2013-07-22 12:18:00,
2013-07-22 07:23:00,68.3,66.8,29.80,SSE,155,0.0,0.0,95,0.00,SCT,,0.00,229.0,WeatherDisplay:10.37,2013-07-22 12:23:00,
2013-07-22 07:28:00,68.6,67.1,29.80,South,180,2.3,0.0,95,0.00,SCT,,0.00,251.0,WeatherDisplay:10.37,2013-07-22 12:28:00,
2013-07-22 07:33:00,68.8,67.3,29.80,South,180,0.0,0.0,95,0.00,SCT,,0.00,271.0,WeatherDisplay:10.37,2013-07-22 12:33:00,
2013-07-22 07:38:00,69.1,67.6,29.80,South,180,3.5,3.5,95,0.00,SCT,,0.00,285.0,WeatherDisplay:10.37,2013-07-22 12:38:00,
2013-07-22 07:43:00,69.4,67.6,29.80,South,179,0.0,0.0,94,0.00,SCT,,0.00,304.0,WeatherDisplay:10.37,2013-07-22 12:43:00,
2013-07-22 07:48:00,69.7,67.9,29.80,South,173,0.0,0.0,94,0.00,SCT,,0.00,320.0,WeatherDisplay:10.37,2013-07-22 12:48:00,
2013-07-22 07:53:00,70.1,68.3,29.80,South,173,4.6,4.6,94,0.00,SCT,,0.00,338.0,WeatherDisplay:10.37,2013-07-22 12:53:00,
2013-07-22 07:58:00,70.6,68.5,29.80,South,173,0.0,0.0,93,0.00,SCT,,0.00,355.0,WeatherDisplay:10.37,2013-07-22 12:58:00,
2013-07-22 08:03:00,71.0,68.9,29.81,South,173,0.0,0.0,93,0.00,FEW,,0.00,373.0,WeatherDisplay:10.37,2013-07-22 13:03:00,
2013-07-22 08:08:00,71.4,69.0,29.81,South,173,0.0,0.0,92,0.00,FEW,,0.00,388.0,WeatherDisplay:10.37,2013-07-22 13:08:00,
2013-07-22 08:13:00,71.9,69.4,29.81,South,173,0.0,0.0,92,0.00,FEW,,0.00,403.0,WeatherDisplay:10.37,2013-07-22 13:13:00,
2013-07-22 08:18:00,72.4,69.6,29.81,South,172,2.3,2.3,91,0.00,FEW,,0.00,420.0,WeatherDisplay:10.37,2013-07-22 13:18:00,
2013-07-22 08:23:00,72.8,69.7,29.81,South,173,0.0,0.0,90,0.00,FEW,,0.00,439.0,WeatherDisplay:10.37,2013-07-22 13:23:00,
2013-07-22 08:28:00,73.1,69.7,29.81,South,182,4.6,4.6,89,0.00,FEW,,0.00,454.0,WeatherDisplay:10.37,2013-07-22 13:28:00,
2013-07-22 08:33:00,73.3,69.9,29.81,South,182,0.0,0.9,89,0.00,FEW,,0.00,469.0,WeatherDisplay:10.37,2013-07-22 13:33:00,
2013-07-22 08:38:00,73.7,70.3,29.81,South,182,0.0,0.0,89,0.00,FEW,,0.00,485.0,WeatherDisplay:10.37,2013-07-22 13:38:00,
2013-07-22 08:43:00,74.0,70.2,29.81,South,182,3.5,3.5,88,0.00,FEW,,0.00,503.0,WeatherDisplay:10.37,2013-07-22 13:43:00,
2013-07-22 08:48:00,74.1,70.0,29.81,SSW,202,4.6,4.6,87,0.00,FEW,,0.00,524.0,WeatherDisplay:10.37,2013-07-22 13:48:00,
2013-07-22 08:53:00,74.3,70.2,29.81,SSW,202,4.6,4.6,87,0.00,FEW,,0.00,538.0,WeatherDisplay:10.37,2013-07-22 13:53:00,
2013-07-22 08:58:00,74.6,70.5,29.81,SSW,202,0.0,0.0,87,0.00,FEW,,0.00,555.0,WeatherDisplay:10.37,2013-07-22 13:58:00,
2013-07-22 09:03:00,74.8,70.7,29.81,SSW,202,0.0,0.0,87,0.00,FEW,,0.00,543.0,WeatherDisplay:10.37,2013-07-22 14:03:00,
2013-07-22 09:08:00,75.1,70.3,29.81,SSW,202,0.0,1.2,85,0.00,FEW,,0.00,578.0,WeatherDisplay:10.37,2013-07-22 14:08:00,
2013-07-22 09:13:00,75.5,71.0,29.80,SSW,202,0.0,0.0,86,0.00,FEW,,0.00,594.0,WeatherDisplay:10.37,2013-07-22 14:13:00,
2013-07-22 09:18:00,76.0,71.2,29.80,SSW,202,0.0,0.0,85,0.00,FEW,,0.00,606.0,WeatherDisplay:10.37,2013-07-22 14:18:00,
2013-07-22 09:23:00,76.5,71.3,29.80,SSW,201,2.0,2.0,84,0.00,FEW,,0.00,628.0,WeatherDisplay:10.37,2013-07-22 14:23:00,
2013-07-22 09:28:00,76.8,70.9,29.80,SSW,200,0.0,0.0,82,0.00,FEW,,0.00,643.0,WeatherDisplay:10.37,2013-07-22 14:28:00,
2013-07-22 09:33:00,77.1,70.8,29.80,SSW,200,3.5,3.5,81,0.00,FEW,,0.00,652.0,WeatherDisplay:10.37,2013-07-22 14:33:00,
2013-07-22 09:38:00,77.4,71.1,29.80,SSW,199,4.6,4.6,81,0.00,FEW,,0.00,659.0,WeatherDisplay:10.37,2013-07-22 14:38:00,
2013-07-22 09:43:00,77.3,70.6,29.80,South,190,6.9,6.9,80,0.00,FEW,,0.00,682.0,WeatherDisplay:10.37,2013-07-22 14:43:00,
2013-07-22 09:48:00,77.3,70.6,29.80,SSW,192,4.0,4.0,80,0.00,FEW,,0.00,693.0,WeatherDisplay:10.37,2013-07-22 14:48:00,
2013-07-22 09:53:00,77.4,70.7,29.80,SSW,192,3.5,3.6,80,0.00,FEW,,0.00,708.0,WeatherDisplay:10.37,2013-07-22 14:53:00,
2013-07-22 09:58:00,77.5,70.5,29.80,SSW,193,6.0,6.0,79,0.00,FEW,,0.00,715.0,WeatherDisplay:10.37,2013-07-22 14:58:00,
2013-07-22 10:03:00,77.6,70.6,29.81,SSW,193,3.5,3.8,79,0.00,FEW,,0.00,733.0,WeatherDisplay:10.37,2013-07-22 15:03:00,
2013-07-22 10:08:00,77.8,70.4,29.81,South,190,4.6,4.6,78,0.00,FEW,,0.00,747.0,WeatherDisplay:10.37,2013-07-22 15:08:00,
2013-07-22 10:13:00,78.1,71.1,29.81,South,186,4.6,4.6,79,0.00,FEW,,0.00,775.0,WeatherDisplay:10.37,2013-07-22 15:13:00,
2013-07-22 10:18:00,78.7,72.0,29.80,South,186,4.6,4.6,80,0.00,CLR,,0.00,884.0,WeatherDisplay:10.37,2013-07-22 15:18:00,
2013-07-22 10:23:00,78.7,72.0,29.81,SSW,207,11.5,11.5,80,0.00,CLR,,0.00,905.0,WeatherDisplay:10.37,2013-07-22 15:23:00,
2013-07-22 10:28:00,78.7,71.6,29.81,SW,217,3.5,3.5,79,0.00,FEW,,0.00,816.0,WeatherDisplay:10.37,2013-07-22 15:28:00,
2013-07-22 10:33:00,78.8,72.1,29.81,SSW,202,4.6,4.6,80,0.00,SCT,,0.00,940.0,WeatherDisplay:10.37,2013-07-22 15:33:00,
2013-07-22 10:39:00,79.0,71.6,29.81,SW,223,5.8,5.8,78,0.00,CLR,,0.00,889.0,WeatherDisplay:10.37,2013-07-22 15:39:00,
2013-07-22 10:44:00,79.3,72.6,29.81,SSW,204,6.9,6.9,80,0.00,CLR,,0.00,998.0,WeatherDisplay:10.37,2013-07-22 15:44:00,
2013-07-22 10:49:00,79.3,72.2,29.81,WSW,252,3.5,3.5,79,0.00,FEW,,0.00,886.0,WeatherDisplay:10.37,2013-07-22 15:49:00,
2013-07-22 10:54:00,79.1,71.6,29.81,SSW,199,6.9,6.9,78,0.00,FEW,,0.00,868.0,WeatherDisplay:10.37,2013-07-22 15:54:00,
2013-07-22 10:59:00,79.2,71.7,29.81,SSW,210,10.4,10.4,78,0.00,CLR,,0.00,951.0,WeatherDisplay:10.37,2013-07-22 15:59:00,
2013-07-22 11:04:00,79.4,72.3,29.81,SSW,211,11.5,11.5,79,0.00,CLR,,0.00,879.0,WeatherDisplay:10.37,2013-07-22 16:04:00,
2013-07-22 11:09:00,79.4,71.9,29.81,SSW,211,10.4,10.4,78,0.00,CLR,,0.00,930.0,WeatherDisplay:10.37,2013-07-22 16:09:00,
2013-07-22 11:14:00,79.6,71.8,29.81,SSW,194,9.2,9.2,77,0.00,CLR,,0.00,960.0,WeatherDisplay:10.37,2013-07-22 16:14:00,
2013-07-22 11:19:00,79.5,72.0,29.81,SSW,202,5.8,5.8,78,0.00,CLR,,0.00,339.0,WeatherDisplay:10.37,2013-07-22 16:19:00,
2013-07-22 11:24:00,79.5,72.0,29.81,South,184,6.9,6.9,78,0.00,FEW,,0.00,988.0,WeatherDisplay:10.37,2013-07-22 16:24:00,
2013-07-22 11:29:00,79.5,72.0,29.81,SSW,206,6.9,6.9,78,0.00,FEW,,0.00,902.0,WeatherDisplay:10.37,2013-07-22 16:29:00,
2013-07-22 11:34:00,79.6,72.1,29.80,South,169,5.8,5.8,78,0.00,CLR,,0.00,905.0,WeatherDisplay:10.37,2013-07-22 16:34:00,
2013-07-22 11:39:00,79.9,72.0,29.80,South,189,5.8,5.8,77,0.00,CLR,,0.00,911.0,WeatherDisplay:10.37,2013-07-22 16:39:00,
2013-07-22 11:44:00,80.3,71.6,29.80,SSW,195,6.9,0.0,75,0.00,FEW,,0.00,918.0,WeatherDisplay:10.37,2013-07-22 16:44:00,
2013-07-22 11:49:00,80.5,72.2,29.79,SSW,198,5.8,5.8,76,0.00,FEW,,0.00,919.0,WeatherDisplay:10.37,2013-07-22 16:49:00,
2013-07-22 11:54:00,80.9,72.6,29.79,SSW,202,0.0,0.3,76,0.00,FEW,,0.00,930.0,WeatherDisplay:10.37,2013-07-22 16:54:00,
2013-07-22 11:59:00,81.6,72.9,29.79,SSW,192,4.6,4.6,75,0.00,FEW,,0.00,932.0,WeatherDisplay:10.37,2013-07-22 16:59:00,
2013-07-22 12:04:00,82.1,73.0,29.79,SSW,208,6.9,6.9,74,0.00,FEW,,0.00,939.0,WeatherDisplay:10.37,2013-07-22 17:04:00,
2013-07-22 12:09:00,82.1,72.6,29.79,SW,218,6.9,6.9,73,0.00,FEW,,0.00,942.0,WeatherDisplay:10.37,2013-07-22 17:09:00,
2013-07-22 12:14:00,82.1,72.2,29.79,SSW,194,4.6,4.6,72,0.00,FEW,,0.00,947.0,WeatherDisplay:10.37,2013-07-22 17:14:00,
2013-07-22 12:19:00,82.6,73.1,29.78,SSW,192,5.8,5.8,73,0.00,FEW,,0.00,949.0,WeatherDisplay:10.37,2013-07-22 17:19:00,
2013-07-22 12:24:00,82.7,71.5,29.78,SSW,202,11.5,11.5,69,0.00,FEW,,0.00,951.0,WeatherDisplay:10.37,2013-07-22 17:24:00,
2013-07-22 12:29:00,83.0,71.8,29.78,SSW,201,7.0,7.0,69,0.00,CLR,,0.00,960.0,WeatherDisplay:10.37,2013-07-22 17:29:00,
2013-07-22 12:34:00,83.2,72.0,29.78,SW,233,5.8,5.8,69,0.00,CLR,,0.00,958.0,WeatherDisplay:10.37,2013-07-22 17:34:00,
2013-07-22 12:39:00,83.6,72.8,29.78,SSW,199,3.5,3.5,70,0.00,CLR,,0.00,960.0,WeatherDisplay:10.37,2013-07-22 17:39:00,
2013-07-22 12:44:00,84.0,72.3,29.78,SSW,200,6.9,6.9,68,0.00,CLR,,0.00,947.0,WeatherDisplay:10.37,2013-07-22 17:44:00,
2013-07-22 12:49:00,84.8,73.1,29.78,SSW,209,0.0,1.2,68,0.00,FEW,,0.00,956.0,WeatherDisplay:10.37,2013-07-22 17:49:00,
2013-07-22 12:54:00,85.0,72.4,29.77,SSW,209,0.0,0.0,66,0.00,FEW,,0.00,970.0,WeatherDisplay:10.37,2013-07-22 17:54:00,
2013-07-22 13:00:00,85.7,72.1,29.77,SSW,199,4.6,4.6,64,0.00,CLR,,0.00,963.0,WeatherDisplay:10.37,2013-07-22 18:00:00,
2013-07-22 13:05:00,85.9,70.9,29.77,South,191,10.4,10.4,61,0.00,CLR,,0.00,963.0,WeatherDisplay:10.37,2013-07-22 18:05:00,
2013-07-22 13:10:00,86.3,71.3,29.77,South,187,5.8,5.8,61,0.00,CLR,,0.00,962.0,WeatherDisplay:10.37,2013-07-22 18:10:00,
2013-07-22 13:15:00,87.2,73.5,29.76,South,189,0.0,0.0,64,0.00,CLR,,0.00,962.0,WeatherDisplay:10.37,2013-07-22 18:15:00,
2013-07-22 13:20:00,87.4,71.8,29.76,SSW,201,5.8,5.8,60,0.00,FEW,,0.00,962.0,WeatherDisplay:10.37,2013-07-22 18:20:00,
2013-07-22 13:25:00,87.5,71.4,29.76,SSW,200,4.6,4.6,59,0.00,FEW,,0.00,962.0,WeatherDisplay:10.37,2013-07-22 18:25:00,
2013-07-22 13:30:00,87.6,71.0,29.76,SSW,200,3.5,3.5,58,0.00,FEW,,0.00,956.0,WeatherDisplay:10.37,2013-07-22 18:30:00,
2013-07-22 13:36:00,87.9,71.8,29.76,SSW,196,3.5,3.5,59,0.00,FEW,,0.00,956.0,WeatherDisplay:10.37,2013-07-22 18:36:00,
2013-07-22 13:41:00,88.4,71.7,29.76,South,191,4.6,4.6,58,0.00,FEW,,0.00,951.0,WeatherDisplay:10.37,2013-07-22 18:41:00,
2013-07-22 13:46:00,88.5,72.8,29.75,SSE,161,4.6,4.6,60,0.00,FEW,,0.00,946.0,WeatherDisplay:10.37,2013-07-22 18:46:00,
2013-07-22 13:52:00,88.6,72.9,29.75,SSE,162,0.0,0.0,60,0.00,FEW,,0.00,939.0,WeatherDisplay:10.37,2013-07-22 18:52:00,
2013-07-22 13:57:00,88.9,72.2,29.75,South,183,5.8,5.8,58,0.00,FEW,,0.00,933.0,WeatherDisplay:10.37,2013-07-22 18:57:00,
2013-07-22 14:02:00,88.8,73.1,29.75,South,182,0.0,0.0,60,0.00,FEW,,0.00,930.0,WeatherDisplay:10.37,2013-07-22 19:02:00,
2013-07-22 14:07:00,89.3,73.6,29.75,South,175,2.3,2.3,60,0.00,FEW,,0.00,923.0,WeatherDisplay:10.37,2013-07-22 19:07:00,
2013-07-22 14:12:00,89.6,73.9,29.75,SSW,197,9.2,9.2,60,0.00,FEW,,0.00,921.0,WeatherDisplay:10.37,2013-07-22 19:12:00,
2013-07-22 14:17:00,89.6,73.4,29.75,South,190,5.8,5.8,59,0.00,FEW,,0.00,919.0,WeatherDisplay:10.37,2013-07-22 19:17:00,
2013-07-22 14:23:00,89.6,73.4,29.75,SSW,207,0.0,0.0,59,0.00,FEW,,0.00,930.0,WeatherDisplay:10.37,2013-07-22 19:23:00,
2013-07-22 14:28:00,89.6,73.4,29.74,SW,230,5.8,5.8,59,0.00,FEW,,0.00,935.0,WeatherDisplay:10.37,2013-07-22 19:28:00,
2013-07-22 14:34:00,90.2,74.9,29.75,SW,229,2.3,0.0,61,0.00,CLR,,0.00,911.0,WeatherDisplay:10.37,2013-07-22 19:34:00,
2013-07-22 14:39:00,90.4,73.6,29.75,SSW,205,6.9,6.9,58,0.00,CLR,,0.00,921.0,WeatherDisplay:10.37,2013-07-22 19:39:00,
2013-07-22 14:45:00,90.3,73.5,29.75,SSW,196,5.8,5.8,58,0.00,CLR,,0.00,930.0,WeatherDisplay:10.37,2013-07-22 19:45:00,
2013-07-22 14:50:00,90.2,74.9,29.74,South,170,6.9,6.9,61,0.00,CLR,,0.00,916.0,WeatherDisplay:10.37,2013-07-22 19:50:00,
2013-07-22 14:55:00,90.3,74.0,29.74,South,171,3.5,3.5,59,0.00,FEW,,0.00,940.0,WeatherDisplay:10.37,2013-07-22 19:55:00,
2013-07-22 15:01:00,90.0,73.7,29.74,SSW,213,11.5,11.5,59,0.00,FEW,,0.00,951.0,WeatherDisplay:10.37,2013-07-22 20:01:00,
2013-07-22 15:06:00,89.6,73.4,29.75,SSW,195,9.2,9.2,59,0.00,SCT,,0.00,234.0,WeatherDisplay:10.37,2013-07-22 20:06:00,
2013-07-22 15:12:00,89.0,73.8,29.74,SSW,211,9.2,9.2,61,0.00,BKN,,0.00,246.0,WeatherDisplay:10.37,2013-07-22 20:12:00,
2013-07-22 15:17:00,88.9,74.2,29.74,South,187,11.5,11.5,62,0.00,BKN,,0.00,928.0,WeatherDisplay:10.37,2013-07-22 20:17:00,
2013-07-22 15:18:00,88.9,73.7,29.74,South,180,12.7,12.7,61,0.00,BKN,,0.00,928.0,WeatherDisplay:10.37,2013-07-22 20:18:00,
2013-07-22 15:23:00,88.7,73.5,29.73,South,188,4.6,4.6,61,0.00,BKN,,0.00,214.0,WeatherDisplay:10.37,2013-07-22 20:23:00,
2013-07-22 15:28:00,88.9,74.2,29.73,SSW,210,16.1,16.1,62,0.00,BKN,,0.00,814.0,WeatherDisplay:10.37,2013-07-22 20:28:00,
2013-07-22 15:33:00,89.0,74.3,29.73,SSE,153,6.9,6.9,62,0.00,SCT,,0.00,805.0,WeatherDisplay:10.37,2013-07-22 20:33:00,
2013-07-22 15:38:00,89.2,74.0,29.73,SSW,196,9.2,9.2,61,0.00,FEW,,0.00,805.0,WeatherDisplay:10.37,2013-07-22 20:38:00,
2013-07-22 15:43:00,89.2,74.5,29.73,SSW,207,9.2,9.2,62,0.00,FEW,,0.00,846.0,WeatherDisplay:10.37,2013-07-22 20:43:00,
2013-07-22 15:48:00,89.3,74.6,29.73,SW,225,6.9,6.9,62,0.00,FEW,,0.00,179.0,WeatherDisplay:10.37,2013-07-22 20:48:00,
2013-07-22 15:53:00,88.9,73.7,29.73,South,186,9.2,9.2,61,0.00,SCT,,0.00,232.0,WeatherDisplay:10.37,2013-07-22 20:53:00,
2013-07-22 15:58:00,88.7,74.5,29.73,SW,235,6.9,6.9,63,0.00,BKN,,0.00,244.0,WeatherDisplay:10.37,2013-07-22 20:58:00,
2013-07-22 16:03:00,88.9,75.6,29.73,South,187,5.8,5.8,65,0.00,BKN,,0.00,752.0,WeatherDisplay:10.37,2013-07-22 21:03:00,
2013-07-22 16:08:00,89.0,74.8,29.73,South,179,11.5,11.5,63,0.00,BKN,,0.00,269.0,WeatherDisplay:10.37,2013-07-22 21:08:00,
2013-07-22 16:13:00,88.8,75.0,29.73,SW,221,4.6,4.6,64,0.00,BKN,,0.00,220.0,WeatherDisplay:10.37,2013-07-22 21:13:00,
2013-07-22 16:18:00,88.8,75.5,29.73,South,177,9.2,9.2,65,0.00,BKN,,0.00,216.0,WeatherDisplay:10.37,2013-07-22 21:18:00,
2013-07-22 16:23:00,88.8,76.0,29.73,SW,217,6.9,6.9,66,0.00,BKN,,0.00,687.0,WeatherDisplay:10.37,2013-07-22 21:23:00,
2013-07-22 16:28:00,88.6,75.3,29.73,South,175,6.9,6.9,65,0.00,BKN,,0.00,156.0,WeatherDisplay:10.37,2013-07-22 21:28:00,
2013-07-22 16:33:00,88.3,75.5,29.73,South,186,3.5,3.5,66,0.00,BKN,,0.00,178.0,WeatherDisplay:10.37,2013-07-22 21:33:00,
2013-07-22 16:38:00,88.2,75.4,29.72,SSE,165,6.9,6.9,66,0.00,BKN,,0.00,223.0,WeatherDisplay:10.37,2013-07-22 21:38:00,
2013-07-22 16:43:00,88.3,75.5,29.72,SSW,195,9.2,9.2,66,0.00,SCT,,0.00,682.0,WeatherDisplay:10.37,2013-07-22 21:43:00,
2013-07-22 16:48:00,88.3,75.5,29.73,SSW,196,5.8,5.8,66,0.00,SCT,,0.00,162.0,WeatherDisplay:10.37,2013-07-22 21:48:00,
2013-07-22 16:53:00,88.5,76.1,29.72,SSW,213,9.2,9.2,67,0.00,SCT,,0.00,717.0,WeatherDisplay:10.37,2013-07-22 21:53:00,
2013-07-22 16:58:00,88.8,76.0,29.72,South,177,5.8,5.8,66,0.00,SCT,,0.00,592.0,WeatherDisplay:10.37,2013-07-22 21:58:00,
2013-07-22 17:03:00,89.3,76.0,29.72,South,184,3.5,4.3,65,0.00,FEW,,0.00,555.0,WeatherDisplay:10.37,2013-07-22 22:03:00,
2013-07-22 17:08:00,89.5,75.7,29.72,SW,227,0.0,0.0,64,0.00,FEW,,0.00,545.0,WeatherDisplay:10.37,2013-07-22 22:08:00,
2013-07-22 17:13:00,89.7,75.4,29.72,SSW,209,12.7,12.7,63,0.00,FEW,,0.00,529.0,WeatherDisplay:10.37,2013-07-22 22:13:00,
2013-07-22 17:18:00,89.8,74.6,29.72,SSW,209,11.5,11.5,61,0.00,FEW,,0.00,492.0,WeatherDisplay:10.37,2013-07-22 22:18:00,
2013-07-22 17:23:00,89.7,74.5,29.72,West,262,6.9,6.9,61,0.00,SCT,,0.00,473.0,WeatherDisplay:10.37,2013-07-22 22:23:00,
2013-07-22 17:28:00,89.5,74.8,29.72,SSW,203,5.8,5.8,62,0.00,SCT,,0.00,468.0,WeatherDisplay:10.37,2013-07-22 22:28:00,
2013-07-22 17:33:00,89.7,74.9,29.72,WSW,241,11.5,11.5,62,0.00,SCT,,0.00,471.0,WeatherDisplay:10.37,2013-07-22 22:33:00,
2013-07-22 17:38:00,89.6,75.3,29.72,SSW,204,6.9,6.9,63,0.00,SCT,,0.00,431.0,WeatherDisplay:10.37,2013-07-22 22:38:00,
2013-07-22 17:43:00,89.5,74.8,29.72,SSE,148,9.2,9.2,62,0.00,SCT,,0.00,439.0,WeatherDisplay:10.37,2013-07-22 22:43:00,
2013-07-22 17:48:00,89.3,75.0,29.71,SSW,199,11.5,11.5,63,0.00,SCT,,0.00,406.0,WeatherDisplay:10.37,2013-07-22 22:48:00,
2013-07-22 17:53:00,89.2,75.0,29.71,SW,221,8.1,8.1,63,0.00,SCT,,0.00,371.0,WeatherDisplay:10.37,2013-07-22 22:53:00,
2013-07-22 17:58:00,89.1,75.3,29.71,SSW,196,5.8,5.8,64,0.00,SCT,,0.00,334.0,WeatherDisplay:10.37,2013-07-22 22:58:00,
2013-07-22 18:03:00,89.1,75.3,29.70,SSW,207,3.5,3.5,64,0.00,SCT,,0.00,320.0,WeatherDisplay:10.37,2013-07-22 23:03:00,
2013-07-22 18:08:00,89.1,75.3,29.70,SSW,209,4.0,4.0,64,0.00,SCT,,0.00,304.0,WeatherDisplay:10.37,2013-07-22 23:08:00,
2013-07-22 18:13:00,89.1,75.3,29.69,SSW,203,0.0,0.1,64,0.00,SCT,,0.00,207.0,WeatherDisplay:10.37,2013-07-22 23:13:00,
2013-07-22 18:18:00,88.7,75.0,29.70,SSW,209,9.2,9.2,64,0.00,BKN,,0.00,197.0,WeatherDisplay:10.37,2013-07-22 23:18:00,
2013-07-22 18:23:00,88.4,75.1,29.70,WSW,247,9.2,9.2,65,0.00,BKN,,0.00,134.0,WeatherDisplay:10.37,2013-07-22 23:23:00,
2013-07-22 18:28:00,87.9,75.6,29.70,SSW,205,0.0,0.1,67,0.00,BKN,,0.00,123.0,WeatherDisplay:10.37,2013-07-22 23:28:00,
2013-07-22 18:33:00,87.5,75.6,29.70,SSW,202,4.6,4.6,68,0.00,BKN,,0.00,120.0,WeatherDisplay:10.37,2013-07-22 23:33:00,
2013-07-22 18:38:00,87.1,75.7,29.70,South,180,5.8,5.8,69,0.00,BKN,,0.00,130.0,WeatherDisplay:10.37,2013-07-22 23:38:00,
2013-07-22 18:43:00,87.0,75.6,29.70,South,179,0.0,1.5,69,0.00,BKN,,0.00,118.0,WeatherDisplay:10.37,2013-07-22 23:43:00,
2013-07-22 18:48:00,86.8,75.4,29.71,SSW,208,0.0,0.0,69,0.00,BKN,,0.00,95.0,WeatherDisplay:10.37,2013-07-22 23:48:00,
2013-07-22 18:53:00,86.7,75.3,29.70,SSW,209,0.0,0.0,69,0.00,BKN,,0.00,84.0,WeatherDisplay:10.37,2013-07-22 23:53:00,
2013-07-22 18:58:00,86.5,75.5,29.71,SW,226,0.0,0.0,70,0.00,BKN,,0.00,79.0,WeatherDisplay:10.37,2013-07-22 23:58:00,
2013-07-22 19:03:00,86.3,75.4,29.70,SSW,196,0.0,0.0,70,0.00,BKN,,0.00,67.0,WeatherDisplay:10.37,2013-07-23 00:03:00,
2013-07-22 19:08:00,86.1,75.2,29.71,SSW,200,0.0,0.0,70,0.00,BKN,,0.00,56.0,WeatherDisplay:10.37,2013-07-23 00:08:00,
2013-07-22 19:13:00,85.8,75.3,29.70,SSW,199,0.0,0.0,71,0.00,BKN,,0.00,54.0,WeatherDisplay:10.37,2013-07-23 00:13:00,
2013-07-22 19:18:00,85.7,75.2,29.71,SSW,200,0.0,0.0,71,0.00,BKN,,0.00,53.0,WeatherDisplay:10.37,2013-07-23 00:18:00,
2013-07-22 19:23:00,85.6,75.5,29.71,SSW,199,0.0,0.0,72,0.00,BKN,,0.00,49.0,WeatherDisplay:10.37,2013-07-23 00:23:00,
2013-07-22 19:28:00,85.4,75.3,29.70,SSW,200,0.0,0.0,72,0.00,BKN,,0.00,47.0,WeatherDisplay:10.37,2013-07-23 00:28:00,
2013-07-22 19:34:00,85.3,75.7,29.70,SSW,199,0.0,0.0,73,0.00,BKN,,0.00,42.0,WeatherDisplay:10.37,2013-07-23 00:34:00,
2013-07-22 19:39:00,85.1,75.5,29.70,SSW,200,0.0,0.0,73,0.00,BKN,,0.00,37.0,WeatherDisplay:10.37,2013-07-23 00:39:00,
2013-07-22 19:44:00,84.9,75.7,29.70,SSW,200,0.0,0.0,74,0.00,BKN,,0.00,33.0,WeatherDisplay:10.37,2013-07-23 00:44:00,
2013-07-22 19:49:00,84.7,75.5,29.70,SSW,200,0.0,0.0,74,0.00,BKN,,0.00,28.0,WeatherDisplay:10.37,2013-07-23 00:49:00,
2013-07-22 19:54:00,84.5,75.7,29.70,SSW,200,0.0,0.0,75,0.00,BKN,,0.00,21.0,WeatherDisplay:10.37,2013-07-23 00:54:00,
2013-07-22 19:59:00,84.2,75.4,29.70,SSW,200,0.0,0.0,75,0.00,BKN,,0.00,16.0,WeatherDisplay:10.37,2013-07-23 00:59:00,
2013-07-22 20:04:00,84.1,75.3,29.70,SSW,200,0.0,0.0,75,0.00,BKN,,0.00,11.0,WeatherDisplay:10.37,2013-07-23 01:04:00,
2013-07-22 20:09:00,83.8,75.4,29.69,SSW,199,0.0,0.0,76,0.00,BKN,,0.00,7.0,WeatherDisplay:10.37,2013-07-23 01:09:00,
2013-07-22 20:14:00,83.6,75.2,29.70,SSW,199,0.0,0.0,76,0.00,BKN,,0.00,5.0,WeatherDisplay:10.37,2013-07-23 01:14:00,
2013-07-22 20:19:00,83.4,75.4,29.70,SSW,199,0.0,0.0,77,0.00,OVC,,0.00,0.0,WeatherDisplay:10.37,2013-07-23 01:19:00,
2013-07-22 20:24:00,83.2,75.2,29.70,SSW,199,0.0,0.0,77,0.00,OVC,,0.00,0.0,WeatherDisplay:10.37,2013-07-23 01:24:00,
2013-07-22 20:29:00,83.0,75.4,29.70,SSW,193,0.0,0.0,78,0.00,CLR,,0.00,0.0,WeatherDisplay:10.37,2013-07-23 01:29:00,
2013-07-22 20:34:00,82.8,75.2,29.71,SSW,192,0.0,0.0,78,0.00,CLR,,0.00,0.0,WeatherDisplay:10.37,2013-07-23 01:34:00,
2013-07-22 20:39:00,82.6,75.0,29.71,SSW,193,0.0,0.0,78,0.00,CLR,,0.00,0.0,WeatherDisplay:10.37,2013-07-23 01:39:00,
2013-07-22 20:44:00,82.4,75.2,29.71,SSW,196,5.8,5.8,79,0.00,CLR,,0.00,0.0,WeatherDisplay:10.37,2013-07-23 01:44:00,
2013-07-22 20:49:00,82.3,75.1,29.71,SSW,196,0.0,0.0,79,0.00,CLR,,0.00,0.0,WeatherDisplay:10.37,2013-07-23 01:49:00,
2013-07-22 20:54:00,82.1,74.9,29.71,SSW,196,0.0,0.0,79,0.00,CLR,,0.00,0.0,WeatherDisplay:10.37,2013-07-23 01:54:00,
2013-07-22 20:59:00,82.0,74.8,29.72,SSW,196,0.0,0.0,79,0.00,CLR,,0.00,0.0,WeatherDisplay:10.37,2013-07-23 01:59:00,
2013-07-22 21:04:00,81.9,75.1,29.71,SSW,195,0.0,0.0,80,0.00,CLR,,0.00,0.0,WeatherDisplay:10.37,2013-07-23 02:04:00,
2013-07-22 21:09:00,81.8,75.0,29.71,SSW,196,0.0,0.0,80,0.00,CLR,,0.00,0.0,WeatherDisplay:10.37,2013-07-23 02:09:00,
2013-07-22 21:14:00,81.7,74.9,29.72,SSW,196,0.0,0.0,80,0.00,CLR,,0.00,0.0,WeatherDisplay:10.37,2013-07-23 02:14:00,
2013-07-22 21:19:00,81.6,75.2,29.72,SSW,195,0.0,0.0,81,0.00,CLR,,0.00,0.0,WeatherDisplay:10.37,2013-07-23 02:19:00,
2013-07-22 21:24:00,81.5,75.1,29.73,SSW,196,0.0,0.0,81,0.00,CLR,,0.00,0.0,WeatherDisplay:10.37,2013-07-23 02:24:00,
2013-07-22 21:29:00,81.1,73.6,29.77,NW,312,10.4,10.4,78,0.00,CLR,,0.00,0.0,WeatherDisplay:10.37,2013-07-23 02:29:00,
2013-07-22 21:34:00,79.8,66.1,29.78,North,360,9.2,9.2,63,0.00,CLR,,0.00,0.0,WeatherDisplay:10.37,2013-07-23 02:34:00,
2013-07-22 21:39:00,78.0,64.8,29.80,NNW,346,32.2,32.2,64,0.00,CLR,,0.00,0.0,WeatherDisplay:10.37,2013-07-23 02:39:00,
2013-07-22 21:44:00,76.1,65.6,29.81,WNW,286,2.3,2.3,70,0.00,CLR,,0.00,0.0,WeatherDisplay:10.37,2013-07-23 02:44:00,
2013-07-22 21:49:00,72.9,66.4,29.83,West,281,23.0,23.0,80,0.06,RA,,0.06,0.0,WeatherDisplay:10.37,2013-07-23 02:49:00,
2013-07-22 21:54:00,70.6,66.2,29.84,WNW,286,5.8,5.8,86,0.21,RA,,0.23,0.0,WeatherDisplay:10.37,2013-07-23 02:54:00,
2013-07-22 21:59:00,68.8,65.4,29.84,West,275,5.8,5.8,89,0.35,RA,,0.35,0.0,WeatherDisplay:10.37,2013-07-23 02:59:00,
2013-07-22 22:04:00,67.9,65.2,29.84,West,275,0.0,0.0,91,0.39,RA,,0.40,0.0,WeatherDisplay:10.37,2013-07-23 03:04:00,
2013-07-22 22:09:00,67.7,65.0,29.84,WNW,294,0.0,0.0,91,0.41,RA,,0.41,0.0,WeatherDisplay:10.37,2013-07-23 03:09:00,
2013-07-22 22:14:00,67.6,65.2,29.83,NNW,338,0.0,0.0,92,0.42,RA,,0.43,0.0,WeatherDisplay:10.37,2013-07-23 03:14:00,
2013-07-22 22:19:00,67.5,65.1,29.83,NNW,329,0.0,0.0,92,0.43,RA,,0.43,0.0,WeatherDisplay:10.37,2013-07-23 03:19:00,
2013-07-22 22:24:00,67.5,65.1,29.82,NW,322,0.0,0.0,92,0.44,RA,,0.44,0.0,WeatherDisplay:10.37,2013-07-23 03:24:00,
2013-07-22 22:29:00,67.4,65.3,29.82,NW,322,0.0,0.0,93,0.44,RA,,0.44,0.0,WeatherDisplay:10.37,2013-07-23 03:29:00,
2013-07-22 22:34:00,67.4,65.3,29.81,NW,322,0.0,0.0,93,0.44,,,0.44,0.0,WeatherDisplay:10.37,2013-07-23 03:34:00,
2013-07-22 22:39:00,67.4,65.3,29.81,NW,322,0.0,0.0,93,0.45,RA,,0.45,0.0,WeatherDisplay:10.37,2013-07-23 03:39:00,
2013-07-22 22:44:00,67.4,65.3,29.81,NW,322,0.0,0.0,93,0.45,RA,,0.45,0.0,WeatherDisplay:10.37,2013-07-23 03:44:00,
2013-07-22 22:49:00,67.5,65.7,29.82,NW,322,0.0,0.0,94,0.39,CLR,,0.45,0.0,WeatherDisplay:10.37,2013-07-23 03:49:00,
2013-07-22 22:54:00,67.7,65.9,29.82,West,265,0.0,0.0,94,0.24,CLR,,0.45,0.0,WeatherDisplay:10.37,2013-07-23 03:54:00,
2013-07-22 22:59:00,67.6,65.8,29.82,South,190,3.5,0.0,94,0.10,CLR,,0.45,0.0,WeatherDisplay:10.37,2013-07-23 03:59:00,
2013-07-22 23:01:00,67.6,65.8,29.81,South,181,1.2,0.0,94,0.09,CLR,,0.45,0.0,WeatherDisplay:10.37,2013-07-23 04:01:00,
2013-07-22 23:06:00,67.5,65.7,29.80,South,178,1.2,1.2,94,0.05,CLR,,0.45,0.0,WeatherDisplay:10.37,2013-07-23 04:06:00,
2013-07-22 23:11:00,67.4,65.6,29.80,South,178,0.0,0.0,94,0.03,CLR,,0.45,0.0,WeatherDisplay:10.37,2013-07-23 04:11:00,
2013-07-22 23:16:00,67.3,65.5,29.79,South,178,0.0,0.0,94,0.02,CLR,,0.45,0.0,WeatherDisplay:10.37,2013-07-23 04:16:00,
2013-07-22 23:21:00,67.3,65.5,29.77,South,178,0.0,0.0,94,0.02,CLR,,0.45,0.0,WeatherDisplay:10.37,2013-07-23 04:21:00,
2013-07-22 23:26:00,67.2,65.4,29.77,South,178,0.0,0.0,94,0.01,CLR,,0.45,0.0,WeatherDisplay:10.37,2013-07-23 04:26:00,
2013-07-22 23:31:00,67.2,65.7,29.75,South,178,0.0,0.0,95,0.01,CLR,,0.45,0.0,WeatherDisplay:10.37,2013-07-23 04:31:00,
2013-07-22 23:36:00,67.2,65.7,29.74,South,178,0.0,0.0,95,0.00,CLR,,0.45,0.0,WeatherDisplay:10.37,2013-07-23 04:36:00,
2013-07-22 23:41:00,67.1,65.6,29.73,South,178,0.0,0.0,95,0.00,CLR,,0.45,0.0,WeatherDisplay:10.37,2013-07-23 04:41:00,
2013-07-22 23:46:00,67.1,65.6,29.70,South,178,0.0,0.0,95,0.00,CLR,,0.45,0.0,WeatherDisplay:10.37,2013-07-23 04:46:00,
2013-07-22 23:51:00,67.1,65.6,29.69,South,176,0.0,0.0,95,0.00,CLR,,0.45,0.0,WeatherDisplay:10.37,2013-07-23 04:51:00,
2013-07-22 23:56:00,67.0,65.5,29.70,East,88,3.5,3.5,95,0.00,CLR,,0.45,0.0,WeatherDisplay:10.37,2013-07-23 04:56:00,